Time;durP1;ratioP1;P1;durP2;ratioP2;P2;SDS_P1;SDS_P2;PMS_P1;PMS_P2;Temp;Humidity;BMP_temperature;BMP_pressure;BME280_temperature;BME280_humidity;BME280_pressure;Samples;Min_cycle;Max_cycle;Signal;HPM_P1;HPM_P2
2022/12/23 00:00:11;;;;;;;226.57;41.53;;;;;;;;;;5070165;28;20057;-66
2022/12/23 00:02:38;;;;;;;216.47;41.13;;;;;;;;;;5063590;28;20388;-66
2022/12/23 00:05:05;;;;;;;163.93;35.87;;;;;;;;;;5050040;28;20438;-66
2022/12/23 00:07:31;;;;;;;183.10;37.03;;;;;;;;;;5049891;28;20052;-65
2022/12/23 00:09:57;;;;;;;169.00;36.13;;;;;;;;;;5049653;28;20044;-65
2022/12/23 00:15:13;;;;;;;177.37;35.93;;;;;;;;;;5038672;28;20095;-66
2022/12/23 00:17:43;;;;;;;198.40;36.97;;;;;;;;;;5049702;28;20446;-66
2022/12/23 00:20:10;;;;;;;169.70;32.70;;;;;;;;;;5048864;28;20095;-66
2022/12/23 00:25:39;;;;;;;145.07;32.17;;;;;;;;;;5050148;28;20392;-65
2022/12/23 00:28:06;;;;;;;166.43;32.03;;;;;;;;;;5049627;28;20146;-65
2022/12/23 00:30:32;;;;;;;128.57;30.27;;;;;;;;;;5049533;28;20418;-65
2022/12/23 00:32:58;;;;;;;163.67;31.60;;;;;;;;;;5051283;28;20045;-65
2022/12/23 00:35:24;;;;;;;116.27;28.57;;;;;;;;;;5063110;28;20044;-65
2022/12/23 00:37:50;;;;;;;120.33;27.77;;;;;;;;;;5051032;28;20041;-66
2022/12/23 00:43:01;;;;;;;158.50;31.13;;;;;;;;;;5060117;28;20044;-66
2022/12/23 00:45:27;;;;;;;212.10;34.67;;;;;;;;;;5069150;28;20045;-65
2022/12/23 00:50:52;;;;;;;275.50;41.70;;;;;;;;;;5056306;28;20107;-65
2022/12/23 00:53:18;;;;;;;301.60;42.83;;;;;;;;;;5066376;28;20048;-65
2022/12/23 00:55:46;;;;;;;265.27;40.57;;;;;;;;;;5067694;28;20048;-65
2022/12/23 00:58:13;;;;;;;277.37;42.67;;;;;;;;;;5069284;28;20048;-66
2022/12/23 01:06:09;;;;;;;207.53;38.60;;;;;;;;;;5068887;28;20392;-65
2022/12/23 01:08:35;;;;;;;186.83;35.53;;;;;;;;;;5068866;28;20041;-65
2022/12/23 01:11:05;;;;;;;191.30;35.33;;;;;;;;;;5068984;28;20442;-65
2022/12/23 01:13:32;;;;;;;171.07;34.77;;;;;;;;;;5051980;28;20045;-65
2022/12/23 01:16:05;;;;;;;155.57;33.77;;;;;;;;;;5047015;28;20045;-65
2022/12/23 01:18:31;;;;;;;;;;;;;;;;;;5049238;28;20049;-65
2022/12/23 01:21:00;;;;;;;149.63;32.07;;;;;;;;;;5056027;28;19921;-65
2022/12/23 01:23:26;;;;;;;154.60;33.00;;;;;;;;;;5053756;28;20124;-65
2022/12/23 01:25:57;;;;;;;151.70;32.30;;;;;;;;;;5048666;28;20132;-65
2022/12/23 01:28:23;;;;;;;134.17;31.30;;;;;;;;;;5048723;28;20449;-65
2022/12/23 01:30:49;;;;;;;169.40;35.13;;;;;;;;;;5048794;28;20529;-65
2022/12/23 01:33:15;;;;;;;145.43;32.13;;;;;;;;;;5058821;28;20044;-66
2022/12/23 01:35:41;;;;;;;159.57;34.93;;;;;;;;;;5067346;28;20039;-66
2022/12/23 01:38:07;;;;;;;167.23;36.13;;;;;;;;;;5068160;28;20047;-66
2022/12/23 01:40:37;;;;;;;210.50;35.90;;;;;;;;;;5068449;28;20059;-65
2022/12/23 01:43:03;;;;;;;148.20;31.27;;;;;;;;;;5068791;28;20099;-66
2022/12/23 01:45:30;;;;;;;146.27;31.90;;;;;;;;;;5057191;28;20053;-65
2022/12/23 01:47:58;;;;;;;134.30;29.97;;;;;;;;;;5063696;28;20048;-66
2022/12/23 01:50:24;;;;;;;177.03;32.07;;;;;;;;;;5067141;28;20045;-66
2022/12/23 01:52:56;;;;;;;197.47;34.83;;;;;;;;;;5067466;28;20052;-66
2022/12/23 01:55:23;;;;;;;142.67;29.17;;;;;;;;;;5066066;28;20097;-65
2022/12/23 01:57:51;;;;;;;173.43;31.53;;;;;;;;;;5068362;28;20052;-67
2022/12/23 02:05:47;;;;;;;177.07;29.47;;;;;;;;;;5067617;28;20048;-66
2022/12/23 02:11:18;;;;;;;125.93;24.50;;;;;;;;;;5066979;28;20510;-66
2022/12/23 02:17:18;;;;;;;130.20;23.30;;;;;;;;;;5050495;28;20049;-66
2022/12/23 02:19:56;;;;;;;133.73;23.13;;;;;;;;;;5053069;28;20071;-66
2022/12/23 02:22:45;;;;;;;125.50;22.83;;;;;;;;;;5068224;28;20566;-66
2022/12/23 02:25:18;;;;;;;111.43;21.37;;;;;;;;;;5057799;28;20053;-66
2022/12/23 02:27:59;;;;;;;112.47;21.47;;;;;;;;;;5048346;28;20056;-66
2022/12/23 02:30:25;;;;;;;111.10;22.13;;;;;;;;;;5053767;28;20048;-66
2022/12/23 02:32:57;;;;;;;92.67;20.03;;;;;;;;;;5067298;28;20435;-66
2022/12/23 02:35:35;;;;;;;103.57;19.90;;;;;;;;;;5068335;28;20055;-66
2022/12/23 02:38:04;;;;;;;137.93;23.47;;;;;;;;;;5067946;28;20056;-66
2022/12/23 02:40:33;;;;;;;147.90;26.20;;;;;;;;;;5066930;28;20491;-66
2022/12/23 02:43:03;;;;;;;113.87;22.47;;;;;;;;;;5068839;28;20056;-66
2022/12/23 02:45:41;;;;;;;102.43;21.20;;;;;;;;;;5070444;28;20056;-66
2022/12/23 02:48:10;;;;;;;108.77;21.40;;;;;;;;;;5071699;28;20102;-67
2022/12/23 02:50:37;;;;;;;115.93;23.07;;;;;;;;;;5061720;28;20099;-66
2022/12/23 02:53:06;;;;;;;86.10;18.73;;;;;;;;;;5051859;28;20045;-66
2022/12/23 02:55:34;;;;;;;92.53;20.23;;;;;;;;;;5051075;28;20073;-66
2022/12/23 02:58:03;;;;;;;116.80;23.50;;;;;;;;;;5051807;28;20072;-66
2022/12/23 03:00:29;;;;;;;109.60;21.77;;;;;;;;;;5058000;28;20095;-66
2022/12/23 03:02:58;;;;;;;114.20;22.77;;;;;;;;;;5069549;28;20131;-66
2022/12/23 03:05:37;;;;;;;93.93;20.73;;;;;;;;;;5071311;28;20063;-66
2022/12/23 03:08:06;;;;;;;114.43;22.00;;;;;;;;;;5071151;28;20052;-66
2022/12/23 03:10:51;;;;;;;129.87;24.30;;;;;;;;;;5069473;28;20506;-66
2022/12/23 03:13:23;;;;;;;119.43;22.33;;;;;;;;;;5069586;28;20060;-66
2022/12/23 03:16:01;;;;;;;115.87;24.33;;;;;;;;;;5070987;28;20045;-66
2022/12/23 03:18:46;;;;;;;95.97;22.00;;;;;;;;;;5070381;28;20080;-66
2022/12/23 03:21:17;;;;;;;113.67;22.27;;;;;;;;;;5070652;28;20559;-66
2022/12/23 03:24:09;;;;;;;117.60;23.17;;;;;;;;;;5070801;28;20097;-66
2022/12/23 03:26:50;;;;;;;121.13;23.70;;;;;;;;;;5054736;28;20503;-66
2022/12/23 03:29:24;;;;;;;107.07;22.33;;;;;;;;;;5063576;28;20048;-66
2022/12/23 03:31:52;;;;;;;114.53;23.43;;;;;;;;;;5050459;28;20099;-66
2022/12/23 03:34:20;;;;;;;114.50;24.93;;;;;;;;;;5050815;28;20049;-66
2022/12/23 03:36:52;;;;;;;108.07;22.93;;;;;;;;;;5049851;28;20056;-66
2022/12/23 03:39:22;;;;;;;108.33;23.40;;;;;;;;;;5050484;28;20110;-66
2022/12/23 03:42:01;;;;;;;149.57;27.17;;;;;;;;;;5049779;28;20037;-66
2022/12/23 03:44:34;;;;;;;140.17;25.47;;;;;;;;;;5050400;28;20045;-66
2022/12/23 03:47:06;;;;;;;124.70;24.27;;;;;;;;;;5050838;28;20060;-66
2022/12/23 03:49:34;;;;;;;133.93;26.70;;;;;;;;;;5050480;28;20071;-66
2022/12/23 03:52:03;;;;;;;134.80;26.43;;;;;;;;;;5050259;28;20311;-66
2022/12/23 03:54:36;;;;;;;152.27;28.83;;;;;;;;;;5050616;28;20045;-66
2022/12/23 03:57:04;;;;;;;155.15;27.80;;;;;;;;;;5050305;28;20156;-66
2022/12/23 03:59:42;;;;;;;131.40;25.13;;;;;;;;;;5050702;28;20072;-66
2022/12/23 04:02:37;;;;;;;155.17;27.90;;;;;;;;;;5048990;28;20189;-66
2022/12/23 04:05:20;;;;;;;140.43;26.83;;;;;;;;;;5045224;28;20045;-66
2022/12/23 04:07:48;;;;;;;170.97;29.20;;;;;;;;;;5049945;28;20384;-66
2022/12/23 04:10:14;;;;;;;188.93;31.27;;;;;;;;;;5052146;28;20045;-66
2022/12/23 04:12:41;;;;;;;252.10;35.83;;;;;;;;;;5070095;28;20086;-66
2022/12/23 04:15:07;;;;;;;237.67;33.93;;;;;;;;;;5070124;28;20036;-66
2022/12/23 04:17:33;;;;;;;230.47;32.97;;;;;;;;;;5067998;28;20046;-66
2022/12/23 04:19:59;;;;;;;249.07;37.27;;;;;;;;;;5069040;28;20491;-66
2022/12/23 04:22:25;;;;;;;208.13;34.20;;;;;;;;;;5068546;28;20044;-66
2022/12/23 04:24:51;;;;;;;209.60;33.37;;;;;;;;;;5069762;28;20098;-66
2022/12/23 04:27:17;;;;;;;202.17;34.67;;;;;;;;;;5069520;28;20076;-66
2022/12/23 04:29:43;;;;;;;169.43;29.97;;;;;;;;;;5069557;28;20127;-66
2022/12/23 04:32:10;;;;;;;247.63;35.93;;;;;;;;;;5048765;28;20411;-66
2022/12/23 04:34:36;;;;;;;237.73;32.87;;;;;;;;;;5049436;28;20637;-67
2022/12/23 04:37:02;;;;;;;240.77;35.77;;;;;;;;;;5049523;28;20043;-67
2022/12/23 04:39:28;;;;;;;215.50;34.27;;;;;;;;;;5049498;28;20076;-66
2022/12/23 04:41:54;;;;;;;218.40;33.13;;;;;;;;;;5064825;28;20827;-67
2022/12/23 04:44:20;;;;;;;214.20;34.90;;;;;;;;;;5069360;28;20059;-66
2022/12/23 04:46:46;;;;;;;216.87;34.17;;;;;;;;;;5068049;28;20111;-67
2022/12/23 04:49:12;;;;;;;188.60;30.60;;;;;;;;;;5069301;28;20384;-66
2022/12/23 04:51:38;;;;;;;230.73;33.13;;;;;;;;;;5036709;28;20072;-67
2022/12/23 04:54:05;;;;;;;214.27;36.00;;;;;;;;;;5047581;28;20081;-67
2022/12/23 04:56:35;;;;;;;190.53;32.47;;;;;;;;;;5048044;28;20757;-66
2022/12/23 04:59:03;;;;;;;203.30;31.53;;;;;;;;;;5047792;28;20128;-67
2022/12/23 05:01:29;;;;;;;203.00;33.53;;;;;;;;;;5048637;28;20112;-66
2022/12/23 05:03:55;;;;;;;215.17;33.67;;;;;;;;;;5047717;28;20053;-66
2022/12/23 05:06:21;;;;;;;197.03;32.50;;;;;;;;;;5048147;28;20049;-66
2022/12/23 05:08:47;;;;;;;142.80;29.03;;;;;;;;;;5048774;28;20045;-66
2022/12/23 05:11:13;;;;;;;338.60;39.73;;;;;;;;;;5056692;28;20056;-66
2022/12/23 05:13:39;;;;;;;257.43;32.50;;;;;;;;;;5068606;28;20082;-66
2022/12/23 05:16:05;;;;;;;192.07;30.87;;;;;;;;;;5068471;28;20067;-66
2022/12/23 05:18:31;;;;;;;211.37;32.30;;;;;;;;;;5068452;28;20044;-66
2022/12/23 05:20:57;;;;;;;171.83;28.80;;;;;;;;;;5067636;28;20051;-66
2022/12/23 05:23:23;;;;;;;157.80;27.73;;;;;;;;;;5068750;28;20044;-66
2022/12/23 05:25:51;;;;;;;268.90;34.57;;;;;;;;;;5068450;28;20049;-66
2022/12/23 05:28:17;;;;;;;228.93;31.60;;;;;;;;;;5068564;28;20490;-66
2022/12/23 05:30:43;;;;;;;247.87;31.17;;;;;;;;;;5061397;28;20037;-66
2022/12/23 05:33:09;;;;;;;292.03;34.33;;;;;;;;;;5048453;28;20080;-66
2022/12/23 05:35:35;;;;;;;314.50;36.83;;;;;;;;;;5047831;28;20094;-66
2022/12/23 05:38:02;;;;;;;425.60;41.63;;;;;;;;;;5048395;28;20045;-66
2022/12/23 05:40:29;;;;;;;505.87;47.07;;;;;;;;;;5051962;28;20407;-66
2022/12/23 05:42:55;;;;;;;514.50;51.43;;;;;;;;;;5068057;28;20047;-66
2022/12/23 05:45:21;;;;;;;568.00;53.10;;;;;;;;;;5068558;28;20052;-66
2022/12/23 05:47:47;;;;;;;443.70;43.37;;;;;;;;;;5067945;28;20044;-66
2022/12/23 05:50:13;;;;;;;376.87;35.57;;;;;;;;;;5064986;28;20055;-66
2022/12/23 05:52:39;;;;;;;228.33;29.30;;;;;;;;;;5045363;28;20045;-66
2022/12/23 05:55:06;;;;;;;433.27;40.83;;;;;;;;;;5046210;28;20048;-66
2022/12/23 05:57:32;;;;;;;384.43;37.00;;;;;;;;;;5045895;28;20052;-66
2022/12/23 05:59:58;;;;;;;534.87;47.47;;;;;;;;;;5044267;28;20052;-66
2022/12/23 06:02:24;;;;;;;504.30;45.47;;;;;;;;;;5061056;28;20045;-66
2022/12/23 06:04:50;;;;;;;437.43;42.37;;;;;;;;;;5065144;28;20033;-66
2022/12/23 06:07:17;;;;;;;538.13;47.60;;;;;;;;;;5066377;28;20055;-66
2022/12/23 06:09:43;;;;;;;559.70;51.07;;;;;;;;;;5068122;28;20041;-66
2022/12/23 06:12:09;;;;;;;370.83;37.67;;;;;;;;;;5062391;28;20044;-66
2022/12/23 06:14:35;;;;;;;541.30;51.90;;;;;;;;;;5067704;28;20041;-66
2022/12/23 06:17:01;;;;;;;427.43;42.00;;;;;;;;;;5067918;28;20051;-66
2022/12/23 06:19:27;;;;;;;502.30;49.30;;;;;;;;;;5071006;28;20040;-66
2022/12/23 06:21:53;;;;;;;389.73;39.73;;;;;;;;;;5056377;28;20522;-66
2022/12/23 06:24:19;;;;;;;527.43;51.93;;;;;;;;;;5051561;28;20045;-66
2022/12/23 06:26:45;;;;;;;527.77;51.10;;;;;;;;;;5050172;28;20049;-66
2022/12/23 06:29:11;;;;;;;477.33;47.13;;;;;;;;;;5051185;28;20588;-66
2022/12/23 06:31:37;;;;;;;504.67;49.30;;;;;;;;;;5050945;28;20052;-66
2022/12/23 06:34:03;;;;;;;516.87;50.17;;;;;;;;;;5051386;28;20041;-66
2022/12/23 06:36:29;;;;;;;526.63;53.03;;;;;;;;;;5051826;28;20098;-67
2022/12/23 06:38:55;;;;;;;434.87;42.27;;;;;;;;;;5050595;28;20526;-66
2022/12/23 06:41:21;;;;;;;306.07;37.50;;;;;;;;;;5051622;28;20048;-67
2022/12/23 06:43:47;;;;;;;507.30;49.33;;;;;;;;;;5051642;28;20091;-66
2022/12/23 06:46:13;;;;;;;582.13;52.10;;;;;;;;;;5062883;28;20053;-66
2022/12/23 06:48:39;;;;;;;468.07;45.23;;;;;;;;;;5050052;28;20041;-67
2022/12/23 06:51:05;;;;;;;526.07;48.37;;;;;;;;;;5050862;28;20044;-66
2022/12/23 06:53:31;;;;;;;536.47;51.37;;;;;;;;;;5051658;28;20593;-66
2022/12/23 06:56:01;;;;;;;561.67;51.33;;;;;;;;;;5051018;28;20053;-66
2022/12/23 06:58:27;;;;;;;520.37;50.73;;;;;;;;;;5049779;28;20095;-66
2022/12/23 07:00:53;;;;;;;482.50;46.83;;;;;;;;;;5050053;28;20048;-66
2022/12/23 07:03:19;;;;;;;536.83;51.37;;;;;;;;;;5050206;28;20135;-66
2022/12/23 07:05:48;;;;;;;527.33;50.50;;;;;;;;;;5051106;28;20447;-66
2022/12/23 07:08:15;;;;;;;517.23;47.93;;;;;;;;;;5050513;28;20502;-66
2022/12/23 07:10:41;;;;;;;543.43;50.03;;;;;;;;;;5050838;28;20047;-67
2022/12/23 07:13:07;;;;;;;498.53;48.07;;;;;;;;;;5049759;28;20119;-66
2022/12/23 07:15:33;;;;;;;535.07;48.90;;;;;;;;;;5050786;28;20048;-66
2022/12/23 07:17:59;;;;;;;569.03;52.97;;;;;;;;;;5050936;28;20550;-66
2022/12/23 07:20:25;;;;;;;546.87;53.17;;;;;;;;;;5050869;28;20047;-66
2022/12/23 07:22:53;;;;;;;500.73;48.20;;;;;;;;;;5050302;28;20061;-66
2022/12/23 07:25:19;;;;;;;597.03;53.33;;;;;;;;;;5050721;28;20500;-67
2022/12/23 07:27:45;;;;;;;515.37;51.87;;;;;;;;;;5050786;28;20052;-66
2022/12/23 07:30:11;;;;;;;544.83;52.77;;;;;;;;;;5055311;28;20052;-66
2022/12/23 07:32:37;;;;;;;548.23;52.30;;;;;;;;;;5068313;28;20399;-66
2022/12/23 07:35:03;;;;;;;546.93;51.60;;;;;;;;;;5050387;28;20036;-66
2022/12/23 07:37:29;;;;;;;496.90;47.97;;;;;;;;;;5049854;28;20396;-67
2022/12/23 07:39:55;;;;;;;494.87;47.87;;;;;;;;;;5033108;28;20099;-66
2022/12/23 07:42:21;;;;;;;421.50;44.87;;;;;;;;;;5050074;28;20051;-66
2022/12/23 07:44:47;;;;;;;460.90;49.33;;;;;;;;;;5044915;28;20482;-66
2022/12/23 07:47:14;;;;;;;462.37;47.80;;;;;;;;;;5059868;28;20057;-66
2022/12/23 07:49:40;;;;;;;448.27;46.67;;;;;;;;;;5061004;28;20049;-66
2022/12/23 07:52:06;;;;;;;424.83;43.13;;;;;;;;;;5059227;28;20063;-66
2022/12/23 07:54:32;;;;;;;416.80;42.27;;;;;;;;;;5060946;28;20048;-66
2022/12/23 07:56:58;;;;;;;397.10;42.13;;;;;;;;;;5054627;28;20083;-66
2022/12/23 07:59:27;;;;;;;380.13;43.03;;;;;;;;;;5056705;28;20072;-66
2022/12/23 08:01:53;;;;;;;446.63;45.17;;;;;;;;;;5059656;28;20072;-66
2022/12/23 08:04:19;;;;;;;456.17;51.30;;;;;;;;;;5057767;28;20044;-66
2022/12/23 08:06:45;;;;;;;452.97;52.20;;;;;;;;;;5060009;28;20047;-66
2022/12/23 08:09:11;;;;;;;409.07;47.23;;;;;;;;;;5040031;28;20041;-67
2022/12/23 08:11:37;;;;;;;390.70;44.83;;;;;;;;;;5060931;28;20036;-66
2022/12/23 08:14:03;;;;;;;333.13;40.43;;;;;;;;;;5056774;28;20511;-66
2022/12/23 08:16:29;;;;;;;338.37;40.63;;;;;;;;;;5057508;28;20534;-66
2022/12/23 08:18:55;;;;;;;355.33;41.77;;;;;;;;;;5054276;28;20076;-66
2022/12/23 08:21:21;;;;;;;296.10;37.13;;;;;;;;;;5056257;28;20112;-66
2022/12/23 08:23:47;;;;;;;302.00;37.20;;;;;;;;;;5058451;28;20441;-66
2022/12/23 08:26:17;;;;;;;315.40;37.77;;;;;;;;;;5060748;28;20098;-66
2022/12/23 08:28:44;;;;;;;265.23;34.17;;;;;;;;;;5053373;28;20033;-66
2022/12/23 08:31:10;;;;;;;260.47;38.10;;;;;;;;;;5058410;28;20048;-66
2022/12/23 08:33:37;;;;;;;263.20;35.60;;;;;;;;;;5056886;28;20487;-66
2022/12/23 08:36:04;;;;;;;240.47;33.27;;;;;;;;;;5057438;28;20102;-66
2022/12/23 08:38:30;;;;;;;235.27;33.80;;;;;;;;;;5060603;28;20465;-66
2022/12/23 08:40:56;;;;;;;244.60;33.90;;;;;;;;;;5057846;28;20118;-67
2022/12/23 08:43:22;;;;;;;247.87;35.83;;;;;;;;;;5062509;28;20040;-66
2022/12/23 08:45:48;;;;;;;165.87;27.73;;;;;;;;;;5060590;28;20060;-66
2022/12/23 08:48:14;;;;;;;183.23;29.87;;;;;;;;;;5057538;28;20087;-66
2022/12/23 08:50:42;;;;;;;161.17;26.17;;;;;;;;;;5051313;28;20071;-66
2022/12/23 08:53:08;;;;;;;129.70;24.00;;;;;;;;;;5048247;28;20037;-66
2022/12/23 08:55:41;;;;;;;129.47;25.13;;;;;;;;;;5048527;28;20048;-65
2022/12/23 08:58:07;;;;;;;132.32;24.15;;;;;;;;;;5047433;28;20052;-66
2022/12/23 09:00:35;;;;;;;134.13;24.37;;;;;;;;;;5047390;28;20053;-66
2022/12/23 09:03:01;;;;;;;110.77;23.13;;;;;;;;;;5047259;28;20056;-66
2022/12/23 09:05:27;;;;;;;124.63;24.13;;;;;;;;;;5046478;28;20060;-66
2022/12/23 09:07:53;;;;;;;117.77;23.43;;;;;;;;;;5048582;28;20052;-66
2022/12/23 09:10:19;;;;;;;138.70;23.13;;;;;;;;;;5046934;28;20809;-66
2022/12/23 09:12:45;;;;;;;140.00;24.87;;;;;;;;;;5048331;28;20045;-66
2022/12/23 09:15:11;;;;;;;180.07;27.43;;;;;;;;;;5048218;28;20048;-66
2022/12/23 09:17:37;;;;;;;170.33;29.00;;;;;;;;;;5047622;28;20048;-66
2022/12/23 09:20:03;;;;;;;120.10;24.03;;;;;;;;;;5047963;28;20360;-66
2022/12/23 09:22:31;;;;;;;124.73;24.77;;;;;;;;;;5047926;28;20384;-66
2022/12/23 09:24:57;;;;;;;76.53;19.30;;;;;;;;;;5047372;28;20428;-66
2022/12/23 09:27:23;;;;;;;108.90;22.97;;;;;;;;;;5051966;28;20041;-66
2022/12/23 09:29:49;;;;;;;80.53;18.43;;;;;;;;;;5058122;28;20051;-66
2022/12/23 09:32:15;;;;;;;102.50;21.07;;;;;;;;;;5051133;28;20045;-66
2022/12/23 09:34:41;;;;;;;116.93;21.37;;;;;;;;;;5066370;28;20411;-66
2022/12/23 09:37:07;;;;;;;97.20;20.90;;;;;;;;;;5047842;28;20037;-66
2022/12/23 09:39:33;;;;;;;100.87;21.30;;;;;;;;;;5067342;28;20055;-66
2022/12/23 09:42:03;;;;;;;105.73;21.53;;;;;;;;;;5062931;28;20040;-66
2022/12/23 09:44:34;;;;;;;98.80;22.20;;;;;;;;;;5065242;28;20053;-66
2022/12/23 09:47:02;;;;;;;76.20;18.80;;;;;;;;;;5057907;28;20136;-66
2022/12/23 09:49:28;;;;;;;80.53;21.30;;;;;;;;;;5060660;28;20483;-66
2022/12/23 09:51:58;;;;;;;84.20;20.90;;;;;;;;;;5063192;28;20333;-66
2022/12/23 09:54:28;;;;;;;64.87;18.23;;;;;;;;;;5058715;28;20052;-66
2022/12/23 09:57:02;;;;;;;79.67;19.83;;;;;;;;;;5064458;28;20060;-66
2022/12/23 09:59:47;;;;;;;82.30;20.67;;;;;;;;;;5073936;28;20040;-66
2022/12/23 10:02:31;;;;;;;90.93;22.70;;;;;;;;;;5074551;28;20045;-66
2022/12/23 10:05:04;;;;;;;68.63;17.83;;;;;;;;;;5054453;28;20079;-66
2022/12/23 10:07:30;;;;;;;84.10;19.75;;;;;;;;;;5073137;28;20526;-66
2022/12/23 10:09:57;;;;;;;81.73;21.57;;;;;;;;;;5072410;28;20049;-66
2022/12/23 10:12:31;;;;;;;56.70;17.53;;;;;;;;;;5074971;28;20051;-65
2022/12/23 10:14:59;;;;;;;60.17;17.63;;;;;;;;;;5073777;28;20055;-66
2022/12/23 10:17:30;;;;;;;88.17;21.13;;;;;;;;;;5059730;28;20049;-66
2022/12/23 10:19:59;;;;;;;75.50;18.47;;;;;;;;;;5073159;28;20051;-66
2022/12/23 10:22:38;;;;;;;79.73;19.67;;;;;;;;;;5069262;28;20046;-65
2022/12/23 10:25:10;;;;;;;81.27;19.53;;;;;;;;;;5067053;28;20041;-66
2022/12/23 10:27:40;;;;;;;73.87;24.17;;;;;;;;;;5071459;28;20044;-66
2022/12/23 10:30:07;;;;;;;108.53;27.00;;;;;;;;;;5073206;28;20040;-65
2022/12/23 10:32:33;;;;;;;60.70;16.30;;;;;;;;;;5074412;28;20051;-66
2022/12/23 10:34:59;;;;;;;56.13;16.40;;;;;;;;;;5074404;28;20048;-66
2022/12/23 10:37:44;;;;;;;55.70;17.37;;;;;;;;;;5058961;28;20151;-66
2022/12/23 10:40:13;;;;;;;61.63;16.43;;;;;;;;;;5057865;28;20449;-66
2022/12/23 10:42:45;;;;;;;58.43;16.97;;;;;;;;;;5062646;28;20495;-66
2022/12/23 10:45:17;;;;;;;61.17;17.17;;;;;;;;;;5054118;28;20049;-66
2022/12/23 10:48:07;;;;;;;77.27;18.50;;;;;;;;;;5056436;28;20383;-66
2022/12/23 10:50:36;;;;;;;58.00;17.93;;;;;;;;;;5053870;28;20414;-66
2022/12/23 10:53:06;;;;;;;84.60;20.17;;;;;;;;;;5051864;28;20056;-66
2022/12/23 10:55:37;;;;;;;76.40;19.07;;;;;;;;;;5052522;28;20041;-66
2022/12/23 10:58:17;;;;;;;67.20;18.40;;;;;;;;;;5052069;28;20131;-66
2022/12/23 11:00:45;;;;;;;69.03;18.67;;;;;;;;;;5052511;28;20049;-66
2022/12/23 11:03:26;;;;;;;61.10;15.57;;;;;;;;;;5051272;28;20040;-66
2022/12/23 11:05:55;;;;;;;63.53;17.10;;;;;;;;;;5049795;28;20053;-66
2022/12/23 11:08:21;;;;;;;58.13;16.93;;;;;;;;;;5049039;28;20052;-66
2022/12/23 11:10:48;;;;;;;55.17;17.57;;;;;;;;;;5050398;28;20043;-66
2022/12/23 11:13:24;;;;;;;75.53;19.07;;;;;;;;;;5049284;28;20045;-66
2022/12/23 11:15:51;;;;;;;88.23;21.13;;;;;;;;;;5048889;28;20414;-66
2022/12/23 11:18:18;;;;;;;107.37;23.83;;;;;;;;;;5050427;28;20529;-66
2022/12/23 11:20:45;;;;;;;70.87;17.30;;;;;;;;;;5050294;28;20044;-66
2022/12/23 11:23:25;;;;;;;70.97;18.60;;;;;;;;;;5050139;28;20049;-66
2022/12/23 11:25:59;;;;;;;93.80;20.53;;;;;;;;;;5049993;28;20580;-66
2022/12/23 11:28:25;;;;;;;84.13;19.70;;;;;;;;;;5050098;28;20076;-66
2022/12/23 11:30:51;;;;;;;88.03;19.43;;;;;;;;;;5050137;28;20052;-66
2022/12/23 11:33:20;;;;;;;75.60;18.20;;;;;;;;;;5048426;28;20501;-66
2022/12/23 11:35:46;;;;;;;94.30;21.53;;;;;;;;;;5049897;28;20377;-66
2022/12/23 11:38:13;;;;;;;85.00;19.17;;;;;;;;;;5049513;28;20567;-66
2022/12/23 11:40:50;;;;;;;71.37;18.63;;;;;;;;;;5049802;28;20044;-66
2022/12/23 11:43:17;;;;;;;87.17;20.30;;;;;;;;;;5049954;28;20123;-66
2022/12/23 11:45:43;;;;;;;86.07;19.63;;;;;;;;;;5049551;28;20132;-66
2022/12/23 11:48:25;;;;;;;84.97;20.57;;;;;;;;;;5049634;28;20064;-66
2022/12/23 11:51:02;;;;;;;113.47;24.17;;;;;;;;;;5048018;28;20061;-66
2022/12/23 11:53:30;;;;;;;130.23;25.33;;;;;;;;;;5049876;28;20072;-66
2022/12/23 11:55:56;;;;;;;113.20;23.70;;;;;;;;;;5049797;28;20443;-66
2022/12/23 11:58:23;;;;;;;111.33;24.80;;;;;;;;;;5049397;28;20094;-66
2022/12/23 12:00:51;;;;;;;117.17;24.80;;;;;;;;;;5049496;28;20060;-66
2022/12/23 12:03:18;;;;;;;100.40;21.40;;;;;;;;;;5047602;28;20384;-66
2022/12/23 12:06:01;;;;;;;73.90;19.43;;;;;;;;;;5031865;28;20059;-66
2022/12/23 12:08:32;;;;;;;84.68;19.27;;;;;;;;;;5049363;28;20499;-66
2022/12/23 12:11:11;;;;;;;71.00;17.60;;;;;;;;;;5049260;28;20063;-66
2022/12/23 12:13:39;;;;;;;90.57;19.63;;;;;;;;;;5049350;28;20056;-66
2022/12/23 12:16:40;;;;;;;64.50;17.73;;;;;;;;;;5047713;28;20088;-66
2022/12/23 12:19:24;;;;;;;76.17;18.60;;;;;;;;;;5026595;28;20436;-66
2022/12/23 12:21:50;;;;;;;;;;;;;;;;;;5045080;28;20061;-66
2022/12/23 12:24:16;;;;;;;77.63;20.07;;;;;;;;;;5047385;28;19928;-66
2022/12/23 12:26:44;;;;;;;73.50;18.93;;;;;;;;;;5048894;28;20041;-66
2022/12/23 12:29:10;;;;;;;65.80;18.33;;;;;;;;;;5049297;28;20535;-66
2022/12/23 12:31:38;;;;;;;85.93;21.57;;;;;;;;;;5048921;28;20105;-66
2022/12/23 12:34:16;;;;;;;78.97;20.07;;;;;;;;;;5049202;28;20049;-66
2022/12/23 12:36:55;;;;;;;95.07;20.03;;;;;;;;;;5048952;28;20048;-66
2022/12/23 12:39:25;;;;;;;82.40;20.13;;;;;;;;;;5048474;28;20523;-66
2022/12/23 12:41:54;;;;;;;80.20;19.80;;;;;;;;;;5057750;28;20494;-66
2022/12/23 12:44:24;;;;;;;77.97;18.93;;;;;;;;;;5068822;28;20087;-66
2022/12/23 12:46:53;;;;;;;77.97;19.90;;;;;;;;;;5064975;28;20043;-66
2022/12/23 12:49:32;;;;;;;95.87;20.77;;;;;;;;;;5047731;28;20041;-65
2022/12/23 12:52:03;;;;;;;91.13;21.53;;;;;;;;;;5059759;28;20402;-66
2022/12/23 12:54:38;;;;;;;102.43;22.70;;;;;;;;;;5067942;28;20041;-66
2022/12/23 12:57:05;;;;;;;96.20;23.43;;;;;;;;;;5068650;28;20040;-66
2022/12/23 12:59:33;;;;;;;106.10;23.23;;;;;;;;;;5067796;28;20071;-66
2022/12/23 13:01:59;;;;;;;99.83;22.23;;;;;;;;;;5069005;28;20474;-66
2022/12/23 13:04:32;;;;;;;92.47;22.43;;;;;;;;;;5064493;28;20087;-66
2022/12/23 13:06:58;;;;;;;118.43;24.08;;;;;;;;;;5058439;28;20044;-66
2022/12/23 13:09:36;;;;;;;108.47;23.97;;;;;;;;;;5048981;28;20045;-66
2022/12/23 13:12:13;;;;;;;115.47;25.83;;;;;;;;;;5048888;28;20098;-66
2022/12/23 13:14:56;;;;;;;118.00;25.10;;;;;;;;;;5030563;28;20073;-66
2022/12/23 13:17:29;;;;;;;121.77;24.80;;;;;;;;;;5049416;28;20052;-66
2022/12/23 13:19:58;;;;;;;92.40;22.45;;;;;;;;;;5049095;28;20438;-66
2022/12/23 13:22:26;;;;;;;108.73;24.17;;;;;;;;;;5053902;28;20040;-66
2022/12/23 13:24:56;;;;;;;98.60;21.87;;;;;;;;;;5060138;28;20055;-66
2022/12/23 13:27:28;;;;;;;85.87;20.83;;;;;;;;;;5051638;28;20053;-67
2022/12/23 13:30:03;;;;;;;132.27;24.93;;;;;;;;;;5063847;28;20542;-67
2022/12/23 13:32:38;;;;;;;136.63;28.20;;;;;;;;;;5067898;28;20056;-67
2022/12/23 13:35:14;;;;;;;123.43;25.67;;;;;;;;;;5054572;28;20441;-67
2022/12/23 13:37:40;;;;;;;134.20;26.27;;;;;;;;;;5065018;28;20043;-67
2022/12/23 13:40:09;;;;;;;124.20;24.97;;;;;;;;;;5067152;28;20045;-67
2022/12/23 13:42:38;;;;;;;125.00;24.57;;;;;;;;;;5051705;28;20048;-67
2022/12/23 13:45:06;;;;;;;90.50;19.50;;;;;;;;;;5071245;28;20068;-67
2022/12/23 13:47:59;;;;;;;99.93;20.77;;;;;;;;;;5062777;28;20052;-67
2022/12/23 13:50:28;;;;;;;77.07;19.42;;;;;;;;;;5063141;28;20533;-67
2022/12/23 13:53:00;;;;;;;97.63;22.13;;;;;;;;;;5067366;28;20045;-67
2022/12/23 13:55:26;;;;;;;88.70;21.50;;;;;;;;;;5061250;28;20049;-67
2022/12/23 13:57:52;;;;;;;82.40;21.03;;;;;;;;;;5050199;28;20052;-67
2022/12/23 14:00:18;;;;;;;91.07;22.40;;;;;;;;;;5067894;28;20421;-67
2022/12/23 14:02:52;;;;;;;86.00;19.07;;;;;;;;;;5043249;28;20071;-67
2022/12/23 14:05:18;;;;;;;;;;;;;;;;;;5047353;28;20041;-67
2022/12/23 14:07:44;;;;;;;91.67;18.97;;;;;;;;;;5062174;28;19942;-67
2022/12/23 14:10:12;;;;;;;75.93;18.83;;;;;;;;;;5066314;28;20072;-67
2022/12/23 14:12:40;;;;;;;74.97;18.07;;;;;;;;;;5065948;28;20090;-67
2022/12/23 14:15:22;;;;;;;94.00;21.73;;;;;;;;;;5051419;28;20411;-67
2022/12/23 14:17:54;;;;;;;60.93;17.10;;;;;;;;;;5060443;28;20108;-67
2022/12/23 14:20:29;;;;;;;101.10;19.67;;;;;;;;;;5060924;28;20059;-67
2022/12/23 14:22:59;;;;;;;79.00;17.73;;;;;;;;;;5050012;28;20300;-67
2022/12/23 14:25:25;;;;;;;79.43;19.03;;;;;;;;;;5050387;28;20134;-67
2022/12/23 14:27:59;;;;;;;87.93;20.33;;;;;;;;;;5049454;28;20051;-67
2022/12/23 14:30:34;;;;;;;76.70;18.23;;;;;;;;;;5062659;28;20041;-67
2022/12/23 14:33:01;;;;;;;90.50;19.57;;;;;;;;;;5052282;28;20056;-68
2022/12/23 14:35:48;;;;;;;86.83;19.93;;;;;;;;;;5067125;28;20040;-67
2022/12/23 14:38:14;;;;;;;86.30;18.40;;;;;;;;;;5066644;28;20090;-67
2022/12/23 14:40:43;;;;;;;69.87;18.20;;;;;;;;;;5068980;28;20048;-67
2022/12/23 14:43:21;;;;;;;86.50;19.67;;;;;;;;;;5061967;28;20047;-67
2022/12/23 14:45:54;;;;;;;92.17;23.67;;;;;;;;;;5068250;28;20439;-67
2022/12/23 14:48:33;;;;;;;87.95;24.77;;;;;;;;;;5059122;28;20053;-67